sensor_id;sensor_type;location;lat;lon;timestamp;P1;durP1;ratioP1;P2;durP2;ratioP2
15699;SDS011;7950;42.744;23.174;2023-07-31T00:01:32;4.87;;;4.47;;
15699;SDS011;7950;42.744;23.174;2023-07-31T00:04:00;4.73;;;4.33;;
15699;SDS011;7950;42.744;23.174;2023-07-31T00:06:29;4.93;;;4.50;;
15699;SDS011;7950;42.744;23.174;2023-07-31T00:08:58;5.87;;;5.07;;
15699;SDS011;7950;42.744;23.174;2023-07-31T00:11:26;5.73;;;4.90;;
15699;SDS011;7950;42.744;23.174;2023-07-31T00:13:56;6.07;;;5.43;;
15699;SDS011;7950;42.744;23.174;2023-07-31T00:16:25;5.83;;;5.33;;
15699;SDS011;7950;42.744;23.174;2023-07-31T00:18:54;6.40;;;5.80;;
15699;SDS011;7950;42.744;23.174;2023-07-31T00:21:22;6.77;;;6.07;;
15699;SDS011;7950;42.744;23.174;2023-07-31T00:23:51;7.37;;;6.60;;
15699;SDS011;7950;42.744;23.174;2023-07-31T00:26:19;7.63;;;6.93;;
15699;SDS011;7950;42.744;23.174;2023-07-31T00:28:48;7.73;;;7.03;;
15699;SDS011;7950;42.744;23.174;2023-07-31T00:31:18;8.80;;;8.00;;
15699;SDS011;7950;42.744;23.174;2023-07-31T00:33:47;8.77;;;7.87;;
15699;SDS011;7950;42.744;23.174;2023-07-31T00:36:15;10.33;;;9.43;;
15699;SDS011;7950;42.744;23.174;2023-07-31T00:38:44;11.40;;;10.40;;
15699;SDS011;7950;42.744;23.174;2023-07-31T00:41:13;11.23;;;10.23;;
15699;SDS011;7950;42.744;23.174;2023-07-31T00:43:41;11.70;;;10.50;;
15699;SDS011;7950;42.744;23.174;2023-07-31T00:46:09;11.43;;;10.33;;
15699;SDS011;7950;42.744;23.174;2023-07-31T00:48:40;11.60;;;10.47;;
15699;SDS011;7950;42.744;23.174;2023-07-31T00:51:09;12.10;;;10.90;;
15699;SDS011;7950;42.744;23.174;2023-07-31T00:53:39;12.33;;;11.23;;
15699;SDS011;7950;42.744;23.174;2023-07-31T00:56:10;15.27;;;13.47;;
15699;SDS011;7950;42.744;23.174;2023-07-31T00:58:40;14.83;;;13.33;;
15699;SDS011;7950;42.744;23.174;2023-07-31T01:01:08;15.20;;;13.60;;
15699;SDS011;7950;42.744;23.174;2023-07-31T01:03:37;17.27;;;15.67;;
15699;SDS011;7950;42.744;23.174;2023-07-31T01:06:09;17.40;;;15.80;;
15699;SDS011;7950;42.744;23.174;2023-07-31T01:08:48;18.30;;;16.40;;
15699;SDS011;7950;42.744;23.174;2023-07-31T01:11:30;17.80;;;16.13;;
15699;SDS011;7950;42.744;23.174;2023-07-31T01:14:02;19.13;;;17.20;;
15699;SDS011;7950;42.744;23.174;2023-07-31T01:16:31;20.27;;;18.27;;
15699;SDS011;7950;42.744;23.174;2023-07-31T01:19:00;20.50;;;18.30;;
15699;SDS011;7950;42.744;23.174;2023-07-31T01:21:47;28.60;;;19.13;;
15699;SDS011;7950;42.744;23.174;2023-07-31T01:24:48;20.37;;;18.30;;
15699;SDS011;7950;42.744;23.174;2023-07-31T01:27:27;20.70;;;18.63;;
15699;SDS011;7950;42.744;23.174;2023-07-31T01:30:05;20.00;;;17.90;;
15699;SDS011;7950;42.744;23.174;2023-07-31T01:32:41;19.67;;;17.77;;
15699;SDS011;7950;42.744;23.174;2023-07-31T01:35:11;20.07;;;18.07;;
15699;SDS011;7950;42.744;23.174;2023-07-31T01:37:40;21.23;;;19.13;;
15699;SDS011;7950;42.744;23.174;2023-07-31T01:40:09;22.77;;;20.60;;
15699;SDS011;7950;42.744;23.174;2023-07-31T01:42:39;23.13;;;20.73;;
15699;SDS011;7950;42.744;23.174;2023-07-31T01:45:08;20.63;;;18.53;;
15699;SDS011;7950;42.744;23.174;2023-07-31T01:47:38;21.37;;;19.27;;
15699;SDS011;7950;42.744;23.174;2023-07-31T01:50:07;20.80;;;18.70;;
15699;SDS011;7950;42.744;23.174;2023-07-31T01:52:36;21.97;;;19.87;;
15699;SDS011;7950;42.744;23.174;2023-07-31T01:55:05;23.37;;;20.97;;
15699;SDS011;7950;42.744;23.174;2023-07-31T01:57:36;22.37;;;20.13;;
15699;SDS011;7950;42.744;23.174;2023-07-31T02:00:06;24.30;;;21.80;;
15699;SDS011;7950;42.744;23.174;2023-07-31T02:02:36;23.17;;;20.77;;
15699;SDS011;7950;42.744;23.174;2023-07-31T02:05:05;21.40;;;19.30;;
15699;SDS011;7950;42.744;23.174;2023-07-31T02:07:34;23.43;;;21.03;;
15699;SDS011;7950;42.744;23.174;2023-07-31T02:10:03;23.87;;;21.50;;
15699;SDS011;7950;42.744;23.174;2023-07-31T02:12:32;23.53;;;21.13;;
15699;SDS011;7950;42.744;23.174;2023-07-31T02:15:01;23.70;;;21.40;;
15699;SDS011;7950;42.744;23.174;2023-07-31T02:17:31;23.17;;;20.90;;
15699;SDS011;7950;42.744;23.174;2023-07-31T02:20:00;23.80;;;21.50;;
15699;SDS011;7950;42.744;23.174;2023-07-31T02:22:29;23.60;;;21.20;;
15699;SDS011;7950;42.744;23.174;2023-07-31T02:24:57;20.77;;;18.67;;
15699;SDS011;7950;42.744;23.174;2023-07-31T02:27:26;21.03;;;18.93;;
15699;SDS011;7950;42.744;23.174;2023-07-31T02:29:54;22.87;;;20.47;;
15699;SDS011;7950;42.744;23.174;2023-07-31T02:32:25;22.07;;;19.87;;
15699;SDS011;7950;42.744;23.174;2023-07-31T02:34:55;22.70;;;20.37;;
15699;SDS011;7950;42.744;23.174;2023-07-31T02:37:24;22.67;;;20.47;;
15699;SDS011;7950;42.744;23.174;2023-07-31T02:39:55;21.83;;;19.60;;
15699;SDS011;7950;42.744;23.174;2023-07-31T02:42:23;23.73;;;21.33;;
15699;SDS011;7950;42.744;23.174;2023-07-31T02:44:52;24.13;;;21.73;;
15699;SDS011;7950;42.744;23.174;2023-07-31T02:47:22;25.40;;;22.90;;
15699;SDS011;7950;42.744;23.174;2023-07-31T02:49:51;25.27;;;22.67;;
15699;SDS011;7950;42.744;23.174;2023-07-31T02:52:21;24.50;;;22.00;;
15699;SDS011;7950;42.744;23.174;2023-07-31T02:54:49;24.23;;;21.83;;
15699;SDS011;7950;42.744;23.174;2023-07-31T02:57:18;24.30;;;21.77;;
15699;SDS011;7950;42.744;23.174;2023-07-31T02:59:46;23.37;;;21.07;;
15699;SDS011;7950;42.744;23.174;2023-07-31T03:02:15;26.07;;;22.93;;
15699;SDS011;7950;42.744;23.174;2023-07-31T03:04:43;22.87;;;20.57;;
15699;SDS011;7950;42.744;23.174;2023-07-31T03:07:12;24.17;;;21.67;;
15699;SDS011;7950;42.744;23.174;2023-07-31T03:09:42;23.20;;;20.83;;
15699;SDS011;7950;42.744;23.174;2023-07-31T03:12:10;24.77;;;22.17;;
15699;SDS011;7950;42.744;23.174;2023-07-31T03:14:39;22.30;;;20.13;;
15699;SDS011;7950;42.744;23.174;2023-07-31T03:17:08;23.03;;;19.90;;
15699;SDS011;7950;42.744;23.174;2023-07-31T03:19:36;23.43;;;21.03;;
15699;SDS011;7950;42.744;23.174;2023-07-31T03:22:05;25.40;;;22.47;;
15699;SDS011;7950;42.744;23.174;2023-07-31T03:24:33;26.03;;;23.30;;
15699;SDS011;7950;42.744;23.174;2023-07-31T03:27:04;26.47;;;23.70;;
15699;SDS011;7950;42.744;23.174;2023-07-31T03:29:33;24.60;;;21.37;;
15699;SDS011;7950;42.744;23.174;2023-07-31T03:32:02;26.13;;;23.47;;
15699;SDS011;7950;42.744;23.174;2023-07-31T03:34:31;24.40;;;21.87;;
15699;SDS011;7950;42.744;23.174;2023-07-31T03:36:59;26.23;;;22.33;;
15699;SDS011;7950;42.744;23.174;2023-07-31T03:39:28;25.47;;;22.77;;
15699;SDS011;7950;42.744;23.174;2023-07-31T03:41:56;25.73;;;23.17;;
15699;SDS011;7950;42.744;23.174;2023-07-31T03:44:26;25.70;;;23.10;;
15699;SDS011;7950;42.744;23.174;2023-07-31T03:46:55;24.23;;;21.77;;
15699;SDS011;7950;42.744;23.174;2023-07-31T03:49:23;24.93;;;21.77;;
15699;SDS011;7950;42.744;23.174;2023-07-31T03:51:53;24.53;;;21.87;;
15699;SDS011;7950;42.744;23.174;2023-07-31T03:54:22;26.33;;;22.87;;
15699;SDS011;7950;42.744;23.174;2023-07-31T03:56:50;24.83;;;22.20;;
15699;SDS011;7950;42.744;23.174;2023-07-31T03:59:19;24.00;;;21.57;;
15699;SDS011;7950;42.744;23.174;2023-07-31T04:01:49;23.50;;;21.10;;
15699;SDS011;7950;42.744;23.174;2023-07-31T04:04:17;23.70;;;21.20;;
15699;SDS011;7950;42.744;23.174;2023-07-31T04:06:46;25.23;;;21.23;;
15699;SDS011;7950;42.744;23.174;2023-07-31T04:09:14;24.37;;;20.67;;
15699;SDS011;7950;42.744;23.174;2023-07-31T04:11:43;22.77;;;20.47;;
15699;SDS011;7950;42.744;23.174;2023-07-31T04:14:11;24.87;;;21.43;;
15699;SDS011;7950;42.744;23.174;2023-07-31T04:16:40;24.10;;;21.57;;
15699;SDS011;7950;42.744;23.174;2023-07-31T04:19:10;22.97;;;20.57;;
15699;SDS011;7950;42.744;23.174;2023-07-31T04:21:43;23.63;;;21.13;;
15699;SDS011;7950;42.744;23.174;2023-07-31T04:24:11;23.90;;;20.73;;
15699;SDS011;7950;42.744;23.174;2023-07-31T04:26:40;22.13;;;19.83;;
15699;SDS011;7950;42.744;23.174;2023-07-31T04:29:08;21.37;;;19.17;;
15699;SDS011;7950;42.744;23.174;2023-07-31T04:31:37;22.40;;;20.10;;
15699;SDS011;7950;42.744;23.174;2023-07-31T04:34:05;22.10;;;19.87;;
15699;SDS011;7950;42.744;23.174;2023-07-31T04:36:35;21.70;;;19.50;;
15699;SDS011;7950;42.744;23.174;2023-07-31T04:39:04;22.93;;;20.63;;
15699;SDS011;7950;42.744;23.174;2023-07-31T04:41:33;23.27;;;20.87;;
15699;SDS011;7950;42.744;23.174;2023-07-31T04:44:02;22.63;;;20.30;;
15699;SDS011;7950;42.744;23.174;2023-07-31T04:46:30;23.57;;;20.90;;
15699;SDS011;7950;42.744;23.174;2023-07-31T04:49:00;22.80;;;20.53;;
15699;SDS011;7950;42.744;23.174;2023-07-31T04:51:29;22.77;;;20.47;;
15699;SDS011;7950;42.744;23.174;2023-07-31T04:53:59;21.57;;;19.47;;
15699;SDS011;7950;42.744;23.174;2023-07-31T04:56:27;21.17;;;19.07;;
15699;SDS011;7950;42.744;23.174;2023-07-31T04:58:56;21.33;;;19.30;;
15699;SDS011;7950;42.744;23.174;2023-07-31T05:01:24;21.37;;;18.17;;
15699;SDS011;7950;42.744;23.174;2023-07-31T05:03:53;19.97;;;18.07;;
15699;SDS011;7950;42.744;23.174;2023-07-31T05:06:22;18.23;;;16.53;;
15699;SDS011;7950;42.744;23.174;2023-07-31T05:08:50;18.27;;;16.47;;
15699;SDS011;7950;42.744;23.174;2023-07-31T05:11:20;16.70;;;15.20;;
15699;SDS011;7950;42.744;23.174;2023-07-31T05:13:49;17.13;;;15.43;;
15699;SDS011;7950;42.744;23.174;2023-07-31T05:16:17;17.23;;;15.47;;
15699;SDS011;7950;42.744;23.174;2023-07-31T05:18:46;16.17;;;14.63;;
15699;SDS011;7950;42.744;23.174;2023-07-31T05:21:15;14.07;;;12.77;;
15699;SDS011;7950;42.744;23.174;2023-07-31T05:23:43;13.67;;;12.37;;
15699;SDS011;7950;42.744;23.174;2023-07-31T05:26:12;13.13;;;11.90;;
15699;SDS011;7950;42.744;23.174;2023-07-31T05:28:45;13.90;;;11.87;;
15699;SDS011;7950;42.744;23.174;2023-07-31T05:31:13;11.67;;;10.63;;
15699;SDS011;7950;42.744;23.174;2023-07-31T05:33:41;12.40;;;11.10;;
15699;SDS011;7950;42.744;23.174;2023-07-31T05:36:10;11.27;;;10.17;;
15699;SDS011;7950;42.744;23.174;2023-07-31T05:38:38;10.97;;;9.97;;
15699;SDS011;7950;42.744;23.174;2023-07-31T05:41:08;10.80;;;9.80;;
15699;SDS011;7950;42.744;23.174;2023-07-31T05:43:37;10.50;;;9.60;;
15699;SDS011;7950;42.744;23.174;2023-07-31T05:46:07;10.47;;;9.47;;
15699;SDS011;7950;42.744;23.174;2023-07-31T05:48:36;9.83;;;8.90;;
15699;SDS011;7950;42.744;23.174;2023-07-31T05:51:05;8.70;;;7.60;;
15699;SDS011;7950;42.744;23.174;2023-07-31T05:53:33;8.57;;;7.77;;
15699;SDS011;7950;42.744;23.174;2023-07-31T05:56:05;8.73;;;7.30;;
15699;SDS011;7950;42.744;23.174;2023-07-31T05:58:34;7.43;;;6.80;;
15699;SDS011;7950;42.744;23.174;2023-07-31T06:01:02;7.47;;;6.70;;
15699;SDS011;7950;42.744;23.174;2023-07-31T06:03:32;7.57;;;6.77;;
15699;SDS011;7950;42.744;23.174;2023-07-31T06:06:01;6.77;;;6.17;;
15699;SDS011;7950;42.744;23.174;2023-07-31T06:08:30;6.83;;;6.20;;
15699;SDS011;7950;42.744;23.174;2023-07-31T06:10:59;6.53;;;5.93;;
15699;SDS011;7950;42.744;23.174;2023-07-31T06:13:27;6.27;;;5.77;;
15699;SDS011;7950;42.744;23.174;2023-07-31T06:15:56;6.20;;;5.70;;
15699;SDS011;7950;42.744;23.174;2023-07-31T06:18:25;6.37;;;5.77;;
15699;SDS011;7950;42.744;23.174;2023-07-31T06:20:55;6.03;;;5.43;;
15699;SDS011;7950;42.744;23.174;2023-07-31T06:23:24;5.93;;;5.33;;
15699;SDS011;7950;42.744;23.174;2023-07-31T06:25:52;5.67;;;5.07;;
15699;SDS011;7950;42.744;23.174;2023-07-31T06:28:21;6.27;;;5.27;;
15699;SDS011;7950;42.744;23.174;2023-07-31T06:30:55;5.40;;;4.93;;
15699;SDS011;7950;42.744;23.174;2023-07-31T06:33:24;4.80;;;4.40;;
15699;SDS011;7950;42.744;23.174;2023-07-31T06:35:53;5.20;;;4.70;;
15699;SDS011;7950;42.744;23.174;2023-07-31T06:38:24;5.87;;;4.90;;
15699;SDS011;7950;42.744;23.174;2023-07-31T06:40:54;5.10;;;4.60;;
15699;SDS011;7950;42.744;23.174;2023-07-31T06:43:22;6.07;;;5.17;;
15699;SDS011;7950;42.744;23.174;2023-07-31T06:45:54;5.23;;;4.73;;
15699;SDS011;7950;42.744;23.174;2023-07-31T06:48:23;5.47;;;4.87;;
15699;SDS011;7950;42.744;23.174;2023-07-31T06:50:51;4.50;;;4.10;;
15699;SDS011;7950;42.744;23.174;2023-07-31T06:53:20;5.30;;;4.70;;
15699;SDS011;7950;42.744;23.174;2023-07-31T06:55:50;6.50;;;4.00;;
15699;SDS011;7950;42.744;23.174;2023-07-31T06:58:19;4.27;;;3.97;;
15699;SDS011;7950;42.744;23.174;2023-07-31T07:00:47;4.50;;;4.10;;
15699;SDS011;7950;42.744;23.174;2023-07-31T07:03:18;6.73;;;4.30;;
15699;SDS011;7950;42.744;23.174;2023-07-31T07:05:46;5.03;;;3.90;;
15699;SDS011;7950;42.744;23.174;2023-07-31T07:08:15;3.67;;;3.37;;
15699;SDS011;7950;42.744;23.174;2023-07-31T07:10:45;3.93;;;3.57;;
15699;SDS011;7950;42.744;23.174;2023-07-31T07:13:14;4.07;;;3.77;;
15699;SDS011;7950;42.744;23.174;2023-07-31T07:15:47;3.70;;;3.40;;
15699;SDS011;7950;42.744;23.174;2023-07-31T07:18:17;3.80;;;3.40;;
15699;SDS011;7950;42.744;23.174;2023-07-31T07:20:47;4.50;;;4.00;;
15699;SDS011;7950;42.744;23.174;2023-07-31T07:23:17;4.00;;;3.53;;
15699;SDS011;7950;42.744;23.174;2023-07-31T07:25:48;3.60;;;3.40;;
15699;SDS011;7950;42.744;23.174;2023-07-31T07:28:18;5.37;;;3.43;;
15699;SDS011;7950;42.744;23.174;2023-07-31T07:30:50;3.80;;;3.50;;
15699;SDS011;7950;42.744;23.174;2023-07-31T07:33:20;3.73;;;3.43;;
15699;SDS011;7950;42.744;23.174;2023-07-31T07:35:48;3.50;;;3.27;;
15699;SDS011;7950;42.744;23.174;2023-07-31T07:38:17;4.33;;;3.53;;
15699;SDS011;7950;42.744;23.174;2023-07-31T07:40:48;4.00;;;3.60;;
15699;SDS011;7950;42.744;23.174;2023-07-31T07:43:20;4.23;;;3.87;;
15699;SDS011;7950;42.744;23.174;2023-07-31T07:45:48;4.47;;;3.80;;
15699;SDS011;7950;42.744;23.174;2023-07-31T07:48:18;3.50;;;3.20;;
15699;SDS011;7950;42.744;23.174;2023-07-31T07:50:46;3.93;;;3.53;;
15699;SDS011;7950;42.744;23.174;2023-07-31T07:53:16;5.00;;;3.43;;
15699;SDS011;7950;42.744;23.174;2023-07-31T07:55:44;3.60;;;3.30;;
15699;SDS011;7950;42.744;23.174;2023-07-31T07:58:14;3.97;;;3.47;;
15699;SDS011;7950;42.744;23.174;2023-07-31T08:00:48;3.60;;;3.30;;
15699;SDS011;7950;42.744;23.174;2023-07-31T08:03:17;3.23;;;3.03;;
15699;SDS011;7950;42.744;23.174;2023-07-31T08:05:46;3.97;;;3.57;;
15699;SDS011;7950;42.744;23.174;2023-07-31T08:08:15;3.40;;;3.10;;
15699;SDS011;7950;42.744;23.174;2023-07-31T08:10:44;4.03;;;3.20;;
15699;SDS011;7950;42.744;23.174;2023-07-31T08:13:14;3.47;;;3.17;;
15699;SDS011;7950;42.744;23.174;2023-07-31T08:15:42;3.50;;;3.30;;
15699;SDS011;7950;42.744;23.174;2023-07-31T08:18:11;4.00;;;3.60;;
15699;SDS011;7950;42.744;23.174;2023-07-31T08:20:40;3.60;;;3.30;;
15699;SDS011;7950;42.744;23.174;2023-07-31T08:23:09;3.40;;;3.10;;
15699;SDS011;7950;42.744;23.174;2023-07-31T08:25:38;3.50;;;3.20;;
15699;SDS011;7950;42.744;23.174;2023-07-31T08:28:06;4.50;;;3.10;;
15699;SDS011;7950;42.744;23.174;2023-07-31T08:30:36;3.80;;;3.20;;
15699;SDS011;7950;42.744;23.174;2023-07-31T08:33:05;3.60;;;3.10;;
15699;SDS011;7950;42.744;23.174;2023-07-31T08:35:33;3.27;;;2.97;;
15699;SDS011;7950;42.744;23.174;2023-07-31T08:38:02;4.60;;;2.93;;
15699;SDS011;7950;42.744;23.174;2023-07-31T08:40:30;3.40;;;3.10;;
15699;SDS011;7950;42.744;23.174;2023-07-31T08:42:59;2.97;;;2.77;;
15699;SDS011;7950;42.744;23.174;2023-07-31T08:45:29;5.77;;;3.00;;
15699;SDS011;7950;42.744;23.174;2023-07-31T08:48:00;3.23;;;3.00;;
15699;SDS011;7950;42.744;23.174;2023-07-31T08:50:29;3.50;;;3.20;;
15699;SDS011;7950;42.744;23.174;2023-07-31T08:52:58;4.77;;;3.17;;
15699;SDS011;7950;42.744;23.174;2023-07-31T08:55:26;3.17;;;2.97;;
15699;SDS011;7950;42.744;23.174;2023-07-31T08:57:56;3.90;;;3.40;;
15699;SDS011;7950;42.744;23.174;2023-07-31T09:00:26;6.20;;;5.03;;
15699;SDS011;7950;42.744;23.174;2023-07-31T09:02:59;3.90;;;3.50;;
15699;SDS011;7950;42.744;23.174;2023-07-31T09:05:36;3.77;;;3.20;;
15699;SDS011;7950;42.744;23.174;2023-07-31T09:08:08;3.23;;;2.93;;
15699;SDS011;7950;42.744;23.174;2023-07-31T09:10:40;3.77;;;3.20;;
15699;SDS011;7950;42.744;23.174;2023-07-31T09:13:09;5.10;;;3.00;;
15699;SDS011;7950;42.744;23.174;2023-07-31T09:15:39;3.20;;;2.77;;
15699;SDS011;7950;42.744;23.174;2023-07-31T09:18:09;3.72;;;2.70;;
15699;SDS011;7950;42.744;23.174;2023-07-31T09:20:38;3.33;;;3.07;;
15699;SDS011;7950;42.744;23.174;2023-07-31T09:23:08;4.57;;;2.80;;
15699;SDS011;7950;42.744;23.174;2023-07-31T09:25:38;3.10;;;2.60;;
15699;SDS011;7950;42.744;23.174;2023-07-31T09:28:10;5.80;;;2.95;;
15699;SDS011;7950;42.744;23.174;2023-07-31T09:30:44;2.85;;;2.55;;
15699;SDS011;7950;42.744;23.174;2023-07-31T09:33:17;3.83;;;2.33;;
15699;SDS011;7950;42.744;23.174;2023-07-31T09:35:46;12.53;;;4.00;;
15699;SDS011;7950;42.744;23.174;2023-07-31T09:38:15;3.70;;;3.40;;
15699;SDS011;7950;42.744;23.174;2023-07-31T09:40:44;3.63;;;3.33;;
15699;SDS011;7950;42.744;23.174;2023-07-31T09:43:17;3.35;;;2.85;;
15699;SDS011;7950;42.744;23.174;2023-07-31T09:45:47;4.20;;;2.55;;
15699;SDS011;7950;42.744;23.174;2023-07-31T09:48:23;5.32;;;2.40;;
15699;SDS011;7950;42.744;23.174;2023-07-31T09:50:54;2.85;;;2.53;;
15699;SDS011;7950;42.744;23.174;2023-07-31T09:53:28;4.18;;;2.50;;
15699;SDS011;7950;42.744;23.174;2023-07-31T09:55:58;2.58;;;2.38;;
15699;SDS011;7950;42.744;23.174;2023-07-31T09:58:27;3.92;;;2.53;;
15699;SDS011;7950;42.744;23.174;2023-07-31T10:00:57;3.53;;;2.67;;
15699;SDS011;7950;42.744;23.174;2023-07-31T10:03:28;3.10;;;2.90;;
15699;SDS011;7950;42.744;23.174;2023-07-31T10:05:58;3.20;;;2.80;;
15699;SDS011;7950;42.744;23.174;2023-07-31T10:08:30;2.75;;;2.50;;
15699;SDS011;7950;42.744;23.174;2023-07-31T10:11:03;4.32;;;2.40;;
15699;SDS011;7950;42.744;23.174;2023-07-31T10:13:34;3.20;;;2.90;;
15699;SDS011;7950;42.744;23.174;2023-07-31T10:16:04;2.92;;;2.63;;
15699;SDS011;7950;42.744;23.174;2023-07-31T10:18:35;3.00;;;2.70;;
15699;SDS011;7950;42.744;23.174;2023-07-31T10:21:06;2.80;;;2.60;;
15699;SDS011;7950;42.744;23.174;2023-07-31T10:23:35;2.47;;;2.17;;
15699;SDS011;7950;42.744;23.174;2023-07-31T10:26:05;2.60;;;2.30;;
15699;SDS011;7950;42.744;23.174;2023-07-31T10:28:36;2.78;;;2.50;;
15699;SDS011;7950;42.744;23.174;2023-07-31T10:31:06;3.75;;;2.30;;
15699;SDS011;7950;42.744;23.174;2023-07-31T10:33:37;3.65;;;2.20;;
15699;SDS011;7950;42.744;23.174;2023-07-31T10:36:12;2.35;;;2.15;;
15699;SDS011;7950;42.744;23.174;2023-07-31T10:38:42;2.30;;;2.10;;
15699;SDS011;7950;42.744;23.174;2023-07-31T10:41:10;2.15;;;2.05;;
15699;SDS011;7950;42.744;23.174;2023-07-31T10:43:39;2.30;;;2.10;;
15699;SDS011;7950;42.744;23.174;2023-07-31T10:46:08;2.70;;;2.50;;
15699;SDS011;7950;42.744;23.174;2023-07-31T10:48:40;2.47;;;2.28;;
15699;SDS011;7950;42.744;23.174;2023-07-31T10:51:10;2.33;;;2.10;;
15699;SDS011;7950;42.744;23.174;2023-07-31T10:53:40;2.88;;;2.13;;
15699;SDS011;7950;42.744;23.174;2023-07-31T10:56:10;3.13;;;2.22;;
15699;SDS011;7950;42.744;23.174;2023-07-31T10:58:40;2.20;;;2.10;;
15699;SDS011;7950;42.744;23.174;2023-07-31T11:01:13;2.55;;;2.13;;
15699;SDS011;7950;42.744;23.174;2023-07-31T11:03:44;3.20;;;2.28;;
15699;SDS011;7950;42.744;23.174;2023-07-31T11:06:15;2.72;;;2.08;;
15699;SDS011;7950;42.744;23.174;2023-07-31T11:08:45;2.50;;;2.30;;
15699;SDS011;7950;42.744;23.174;2023-07-31T11:11:16;2.80;;;2.60;;
15699;SDS011;7950;42.744;23.174;2023-07-31T11:13:48;4.57;;;3.60;;
15699;SDS011;7950;42.744;23.174;2023-07-31T11:16:19;4.32;;;3.30;;
15699;SDS011;7950;42.744;23.174;2023-07-31T11:18:52;3.78;;;3.47;;
15699;SDS011;7950;42.744;23.174;2023-07-31T11:21:23;3.85;;;3.45;;
15699;SDS011;7950;42.744;23.174;2023-07-31T11:23:55;3.65;;;3.10;;
15699;SDS011;7950;42.744;23.174;2023-07-31T11:26:25;3.78;;;2.90;;
15699;SDS011;7950;42.744;23.174;2023-07-31T11:28:55;3.75;;;3.45;;
15699;SDS011;7950;42.744;23.174;2023-07-31T11:31:23;3.78;;;3.42;;
15699;SDS011;7950;42.744;23.174;2023-07-31T11:34:05;4.35;;;3.95;;
15699;SDS011;7950;42.744;23.174;2023-07-31T11:36:34;4.32;;;3.92;;
15699;SDS011;7950;42.744;23.174;2023-07-31T11:39:06;5.10;;;4.03;;
15699;SDS011;7950;42.744;23.174;2023-07-31T11:41:36;6.03;;;4.72;;
15699;SDS011;7950;42.744;23.174;2023-07-31T11:44:08;5.50;;;5.00;;
15699;SDS011;7950;42.744;23.174;2023-07-31T11:46:52;5.32;;;4.82;;
15699;SDS011;7950;42.744;23.174;2023-07-31T11:49:22;5.50;;;5.10;;
15699;SDS011;7950;42.744;23.174;2023-07-31T11:51:50;7.13;;;6.30;;
15699;SDS011;7950;42.744;23.174;2023-07-31T11:54:19;9.52;;;7.20;;
15699;SDS011;7950;42.744;23.174;2023-07-31T11:56:48;8.45;;;7.65;;
15699;SDS011;7950;42.744;23.174;2023-07-31T11:59:17;7.70;;;7.07;;
15699;SDS011;7950;42.744;23.174;2023-07-31T12:01:45;7.38;;;6.78;;
15699;SDS011;7950;42.744;23.174;2023-07-31T12:04:16;6.97;;;6.38;;
15699;SDS011;7950;42.744;23.174;2023-07-31T12:06:47;5.63;;;5.13;;
15699;SDS011;7950;42.744;23.174;2023-07-31T12:09:16;5.65;;;5.20;;
15699;SDS011;7950;42.744;23.174;2023-07-31T12:11:45;6.53;;;6.03;;
15699;SDS011;7950;42.744;23.174;2023-07-31T12:14:24;6.22;;;5.63;;
15699;SDS011;7950;42.744;23.174;2023-07-31T12:16:56;6.18;;;5.68;;
15699;SDS011;7950;42.744;23.174;2023-07-31T12:19:28;7.57;;;6.90;;
15699;SDS011;7950;42.744;23.174;2023-07-31T12:21:59;6.93;;;5.78;;
15699;SDS011;7950;42.744;23.174;2023-07-31T12:24:28;6.65;;;6.13;;
15699;SDS011;7950;42.744;23.174;2023-07-31T12:26:56;7.35;;;6.75;;
15699;SDS011;7950;42.744;23.174;2023-07-31T12:29:33;6.93;;;6.32;;
15699;SDS011;7950;42.744;23.174;2023-07-31T12:32:18;6.38;;;5.88;;
15699;SDS011;7950;42.744;23.174;2023-07-31T12:34:48;6.35;;;5.75;;
15699;SDS011;7950;42.744;23.174;2023-07-31T12:37:18;6.28;;;5.68;;
15699;SDS011;7950;42.744;23.174;2023-07-31T12:39:48;7.20;;;6.50;;
15699;SDS011;7950;42.744;23.174;2023-07-31T12:42:17;7.43;;;6.82;;
15699;SDS011;7950;42.744;23.174;2023-07-31T12:44:45;7.82;;;7.18;;
15699;SDS011;7950;42.744;23.174;2023-07-31T12:47:14;6.70;;;6.10;;
15699;SDS011;7950;42.744;23.174;2023-07-31T12:49:42;6.40;;;5.90;;
15699;SDS011;7950;42.744;23.174;2023-07-31T12:52:11;6.28;;;5.78;;
15699;SDS011;7950;42.744;23.174;2023-07-31T12:54:41;6.47;;;5.93;;
15699;SDS011;7950;42.744;23.174;2023-07-31T12:57:09;5.80;;;5.28;;
15699;SDS011;7950;42.744;23.174;2023-07-31T12:59:38;5.22;;;4.82;;
15699;SDS011;7950;42.744;23.174;2023-07-31T13:02:06;5.40;;;4.90;;
15699;SDS011;7950;42.744;23.174;2023-07-31T13:04:35;5.90;;;4.68;;
15699;SDS011;7950;42.744;23.174;2023-07-31T13:07:03;5.07;;;4.63;;
15699;SDS011;7950;42.744;23.174;2023-07-31T13:09:32;4.35;;;3.95;;
15699;SDS011;7950;42.744;23.174;2023-07-31T13:12:03;5.05;;;4.65;;
15699;SDS011;7950;42.744;23.174;2023-07-31T13:14:32;5.53;;;5.07;;
15699;SDS011;7950;42.744;23.174;2023-07-31T13:17:00;5.70;;;5.13;;
15699;SDS011;7950;42.744;23.174;2023-07-31T13:19:29;5.10;;;4.70;;
15699;SDS011;7950;42.744;23.174;2023-07-31T13:21:58;6.20;;;5.63;;
15699;SDS011;7950;42.744;23.174;2023-07-31T13:24:26;5.00;;;4.60;;
15699;SDS011;7950;42.744;23.174;2023-07-31T13:26:55;4.88;;;4.43;;
15699;SDS011;7950;42.744;23.174;2023-07-31T13:29:25;4.93;;;4.43;;
15699;SDS011;7950;42.744;23.174;2023-07-31T13:31:54;4.72;;;4.30;;
15699;SDS011;7950;42.744;23.174;2023-07-31T13:34:22;5.07;;;4.68;;
15699;SDS011;7950;42.744;23.174;2023-07-31T13:36:53;5.45;;;4.95;;
15699;SDS011;7950;42.744;23.174;2023-07-31T13:39:22;5.32;;;4.82;;
15699;SDS011;7950;42.744;23.174;2023-07-31T13:41:51;6.00;;;4.63;;
15699;SDS011;7950;42.744;23.174;2023-07-31T13:44:19;5.05;;;4.57;;
15699;SDS011;7950;42.744;23.174;2023-07-31T13:46:49;5.80;;;4.32;;
15699;SDS011;7950;42.744;23.174;2023-07-31T13:49:18;5.63;;;4.90;;
15699;SDS011;7950;42.744;23.174;2023-07-31T13:51:47;5.32;;;4.82;;
15699;SDS011;7950;42.744;23.174;2023-07-31T13:54:15;4.70;;;4.30;;
15699;SDS011;7950;42.744;23.174;2023-07-31T13:56:44;4.57;;;4.18;;
15699;SDS011;7950;42.744;23.174;2023-07-31T13:59:13;4.65;;;4.25;;
15699;SDS011;7950;42.744;23.174;2023-07-31T14:01:43;4.00;;;3.70;;
15699;SDS011;7950;42.744;23.174;2023-07-31T14:04:13;4.38;;;4.07;;
15699;SDS011;7950;42.744;23.174;2023-07-31T14:06:42;4.53;;;4.22;;
15699;SDS011;7950;42.744;23.174;2023-07-31T14:09:11;7.20;;;4.18;;
15699;SDS011;7950;42.744;23.174;2023-07-31T14:11:40;5.47;;;3.95;;
15699;SDS011;7950;42.744;23.174;2023-07-31T14:14:09;6.00;;;4.38;;
15699;SDS011;7950;42.744;23.174;2023-07-31T14:16:38;5.75;;;3.95;;
15699;SDS011;7950;42.744;23.174;2023-07-31T14:19:07;5.32;;;3.95;;
15699;SDS011;7950;42.744;23.174;2023-07-31T14:21:38;4.13;;;3.63;;
15699;SDS011;7950;42.744;23.174;2023-07-31T14:24:06;4.43;;;3.95;;
15699;SDS011;7950;42.744;23.174;2023-07-31T14:26:35;5.20;;;4.07;;
15699;SDS011;7950;42.744;23.174;2023-07-31T14:29:04;4.88;;;3.67;;
15699;SDS011;7950;42.744;23.174;2023-07-31T14:31:32;5.43;;;4.05;;
15699;SDS011;7950;42.744;23.174;2023-07-31T14:34:01;4.15;;;3.50;;
15699;SDS011;7950;42.744;23.174;2023-07-31T14:36:29;5.63;;;3.63;;
15699;SDS011;7950;42.744;23.174;2023-07-31T14:38:59;6.05;;;3.67;;
15699;SDS011;7950;42.744;23.174;2023-07-31T14:41:28;3.78;;;3.45;;
15699;SDS011;7950;42.744;23.174;2023-07-31T14:43:56;3.80;;;3.50;;
15699;SDS011;7950;42.744;23.174;2023-07-31T14:46:25;4.60;;;3.28;;
15699;SDS011;7950;42.744;23.174;2023-07-31T14:48:53;6.75;;;3.40;;
15699;SDS011;7950;42.744;23.174;2023-07-31T14:51:22;5.97;;;3.13;;
15699;SDS011;7950;42.744;23.174;2023-07-31T14:53:50;3.35;;;3.05;;